createdAt,value
2022-11-14T00:01:35.172Z,17.20
2022-11-14T00:04:24.292Z,18.87
2022-11-14T00:07:12.492Z,17.33
2022-11-14T00:09:57.991Z,19.97
2022-11-14T00:12:43.290Z,18.20
2022-11-14T00:15:28.443Z,20.77
2022-11-14T00:18:14.518Z,18.87
2022-11-14T00:20:59.717Z,19.93
2022-11-14T00:23:45.223Z,20.67
2022-11-14T00:26:30.671Z,19.00
2022-11-14T00:29:16.098Z,21.70
2022-11-14T00:32:01.465Z,19.63
2022-11-14T00:34:47.279Z,21.13
2022-11-14T00:37:32.437Z,19.80
2022-11-14T00:40:18.078Z,18.20
2022-11-14T00:43:03.415Z,22.97
2022-11-14T00:45:49.345Z,21.20
2022-11-14T00:48:35.263Z,17.67
2022-11-14T00:51:20.715Z,20.07
2022-11-14T00:54:06.171Z,21.10
2022-11-14T00:56:52.217Z,19.77
2022-11-14T00:59:37.676Z,22.77
2022-11-14T01:02:23.786Z,21.83
2022-11-14T01:05:09.093Z,21.00
2022-11-14T01:07:54.678Z,19.90
2022-11-14T01:10:45.334Z,17.80
2022-11-14T01:13:32.237Z,20.40
2022-11-14T01:16:17.524Z,19.33
2022-11-14T01:19:03.528Z,19.57
2022-11-14T01:21:48.984Z,20.87
2022-11-14T01:24:34.902Z,19.07
2022-11-14T01:27:20.663Z,19.83
2022-11-14T01:30:06.883Z,19.40
2022-11-14T01:32:52.137Z,18.60
2022-11-14T01:35:38.465Z,18.43
2022-11-14T01:38:23.732Z,21.53
2022-11-14T01:41:10.423Z,20.63
2022-11-14T01:43:55.726Z,19.40
2022-11-14T01:46:42.714Z,20.73
2022-11-14T01:49:39.210Z,20.03
2022-11-14T01:52:32.308Z,21.57
2022-11-14T01:55:17.796Z,17.67
2022-11-14T01:58:03.354Z,19.00
2022-11-14T02:00:48.360Z,19.70
2022-11-14T02:03:36.426Z,17.67
2022-11-14T02:06:23.713Z,21.73
2022-11-14T02:09:08.896Z,22.70
2022-11-14T02:11:55.463Z,17.60
2022-11-14T02:14:41.792Z,18.90
2022-11-14T02:17:30.120Z,19.50
2022-11-14T02:20:20.414Z,17.50
2022-11-14T02:23:05.644Z,21.60
2022-11-14T02:25:50.980Z,18.27
2022-11-14T02:28:36.658Z,16.80
2022-11-14T02:31:22.336Z,17.87
2022-11-14T02:34:07.772Z,16.93
2022-11-14T02:36:53.407Z,17.30
2022-11-14T02:39:39.117Z,18.80
2022-11-14T02:42:24.769Z,16.57
2022-11-14T02:45:11.043Z,16.17
2022-11-14T02:47:56.761Z,18.33
2022-11-14T02:50:42.054Z,21.43
2022-11-14T02:53:27.574Z,17.87
2022-11-14T02:56:13.065Z,22.70
2022-11-14T02:58:58.344Z,17.67
2022-11-14T03:01:43.977Z,16.67
2022-11-14T03:04:29.663Z,20.60
2022-11-14T03:07:15.013Z,20.97
2022-11-14T03:10:00.365Z,19.57
2022-11-14T03:12:45.897Z,21.67
2022-11-14T03:15:31.265Z,17.70
2022-11-14T03:18:16.745Z,17.87
2022-11-14T03:21:10.108Z,18.03
2022-11-14T03:23:55.379Z,17.43
2022-11-14T03:26:40.835Z,22.40
2022-11-14T03:29:26.408Z,19.93
2022-11-14T03:32:11.631Z,17.63
2022-11-14T03:34:57.367Z,17.40
2022-11-14T03:37:42.512Z,15.73
2022-11-14T03:40:28.183Z,16.37
2022-11-14T03:43:13.193Z,18.73
2022-11-14T03:46:00.584Z,18.53
2022-11-14T03:48:45.846Z,17.13
2022-11-14T03:51:31.515Z,18.73
2022-11-14T03:54:16.541Z,18.50
2022-11-14T03:57:02.116Z,18.20
2022-11-14T03:59:47.404Z,18.60
2022-11-14T04:02:33.105Z,18.73
2022-11-14T04:05:18.346Z,20.80
2022-11-14T04:08:07.527Z,21.20
2022-11-14T04:10:52.791Z,19.87
2022-11-14T04:13:38.248Z,19.10
2022-11-14T04:16:23.570Z,18.90
2022-11-14T04:19:08.875Z,19.77
2022-11-14T04:21:54.784Z,18.77
2022-11-14T04:24:40.197Z,21.17
2022-11-14T04:27:25.585Z,21.23
2022-11-14T04:30:11.822Z,25.87
2022-11-14T04:32:56.948Z,24.43
2022-11-14T04:35:42.284Z,20.37
2022-11-14T04:38:28.159Z,18.93
2022-11-14T04:41:14.049Z,17.17
2022-11-14T04:43:59.454Z,21.87
2022-11-14T04:46:45.086Z,24.07
2022-11-14T04:49:35.441Z,45.57
2022-11-14T04:52:20.582Z,59.30
2022-11-14T04:55:06.116Z,33.90
2022-11-14T04:57:56.044Z,24.70
2022-11-14T05:00:41.322Z,21.67
2022-11-14T05:03:26.796Z,24.43
2022-11-14T05:06:12.337Z,22.17
2022-11-14T05:08:57.988Z,23.17
2022-11-14T05:11:43.261Z,23.97
2022-11-14T05:14:28.620Z,27.97
2022-11-14T05:17:14.019Z,22.00
2022-11-14T05:19:59.809Z,19.90
2022-11-14T05:22:45.134Z,20.47
2022-11-14T05:25:30.622Z,20.23
2022-11-14T05:28:16.206Z,19.30
2022-11-14T05:31:06.621Z,23.83
2022-11-14T05:33:52.746Z,22.73
2022-11-14T05:36:38.099Z,17.40
2022-11-14T05:39:23.482Z,21.27
2022-11-14T05:42:08.735Z,20.23
2022-11-14T05:44:54.232Z,19.80
2022-11-14T05:47:39.552Z,18.63
2022-11-14T05:50:25.234Z,21.33
2022-11-14T05:53:10.484Z,19.60
2022-11-14T05:55:55.844Z,19.63
2022-11-14T05:58:41.911Z,16.30
2022-11-14T06:01:28.141Z,17.47
2022-11-14T06:04:15.239Z,19.67
2022-11-14T06:07:00.738Z,17.07
2022-11-14T06:09:46.483Z,24.70
2022-11-14T06:12:32.807Z,16.57
2022-11-14T06:15:17.971Z,18.20
2022-11-14T06:18:03.524Z,16.73
2022-11-14T06:20:49.391Z,24.83
2022-11-14T06:23:34.653Z,21.23
2022-11-14T06:26:27.068Z,22.73
2022-11-14T06:29:12.975Z,18.80
2022-11-14T06:31:58.203Z,15.03
2022-11-14T06:34:44.460Z,22.83
2022-11-14T06:37:33.547Z,24.35
2022-11-14T06:40:19.342Z,19.15
2022-11-14T06:43:04.721Z,24.53
2022-11-14T06:45:55.056Z,17.07
2022-11-14T06:48:41.710Z,21.05
2022-11-14T06:51:27.121Z,25.20
2022-11-14T06:54:12.915Z,16.10
2022-11-14T06:56:58.335Z,23.93
2022-11-14T06:59:43.855Z,23.73
2022-11-14T07:02:29.148Z,16.93
2022-11-14T07:05:15.908Z,24.43
2022-11-14T07:08:01.675Z,25.40
2022-11-14T07:10:47.408Z,32.80
2022-11-14T07:13:33.600Z,20.43
2022-11-14T07:16:19.999Z,24.77
2022-11-14T07:19:09.960Z,17.40
2022-11-14T07:22:01.960Z,20.10
2022-11-14T07:24:47.367Z,20.53
2022-11-14T07:27:32.971Z,17.00
2022-11-14T07:30:18.487Z,18.10
2022-11-14T07:33:03.831Z,23.77
2022-11-14T07:35:51.160Z,18.50
2022-11-14T07:38:42.859Z,16.57
2022-11-14T07:41:28.598Z,20.80
2022-11-14T07:44:14.061Z,20.27
2022-11-14T07:46:59.785Z,20.23
2022-11-14T07:49:45.297Z,19.23
2022-11-14T07:52:31.588Z,21.88
2022-11-14T07:55:17.024Z,16.30
2022-11-14T07:58:02.770Z,18.53
2022-11-14T08:00:52.012Z,15.53
2022-11-14T08:03:42.290Z,15.93
2022-11-14T08:06:36.020Z,17.70
2022-11-14T08:09:23.236Z,14.73
2022-11-14T08:12:09.101Z,20.00
2022-11-14T08:14:54.840Z,29.07
2022-11-14T08:17:40.502Z,19.07
2022-11-14T08:20:26.938Z,17.77
2022-11-14T08:23:12.336Z,13.13
2022-11-14T08:25:59.250Z,14.47
2022-11-14T08:28:44.538Z,17.37
2022-11-14T08:31:29.954Z,16.27
2022-11-14T08:34:15.661Z,11.37
2022-11-14T08:37:01.528Z,14.07
2022-11-14T08:39:47.222Z,13.03
2022-11-14T08:42:33.083Z,22.40
2022-11-14T08:45:18.517Z,23.40
2022-11-14T08:48:03.716Z,20.40
2022-11-14T08:50:49.171Z,17.77
2022-11-14T08:53:34.556Z,19.47
2022-11-14T08:56:19.877Z,12.93
2022-11-14T08:59:05.268Z,15.13
2022-11-14T09:01:50.608Z,18.47
2022-11-14T09:04:36.064Z,12.30
2022-11-14T09:07:22.026Z,23.73
2022-11-14T09:10:08.096Z,22.27
2022-11-14T09:13:00.654Z,13.97
2022-11-14T09:15:46.384Z,18.23
2022-11-14T09:18:32.197Z,15.23
2022-11-14T09:21:17.763Z,14.57
2022-11-14T09:24:03.358Z,18.67
2022-11-14T09:26:55.209Z,18.40
2022-11-14T09:29:42.533Z,11.63
2022-11-14T09:32:28.088Z,14.47
2022-11-14T09:35:13.585Z,19.13
2022-11-14T09:38:04.633Z,18.30
2022-11-14T09:41:08.773Z,18.13
2022-11-14T09:44:03.570Z,16.07
2022-11-14T09:46:57.609Z,13.97
2022-11-14T09:49:45.058Z,14.97
2022-11-14T09:52:45.136Z,13.27
2022-11-14T09:55:37.233Z,15.53
2022-11-14T09:58:23.564Z,12.53
2022-11-14T10:01:29.390Z,16.53
2022-11-14T10:04:49.313Z,13.20
2022-11-14T10:08:03.891Z,10.13
2022-11-14T10:11:00.171Z,12.20
2022-11-14T10:13:51.658Z,8.60
2022-11-14T10:16:43.811Z,11.87
2022-11-14T10:19:42.857Z,10.60
2022-11-14T10:22:40.865Z,13.13
2022-11-14T10:25:32.114Z,11.43
2022-11-14T10:28:41.206Z,9.27
2022-11-14T10:31:35.775Z,10.33
2022-11-14T10:34:32.076Z,11.90
2022-11-14T10:37:24.134Z,11.97
2022-11-14T10:40:27.063Z,13.27
2022-11-14T10:43:18.562Z,12.40
2022-11-14T10:46:10.725Z,9.97
2022-11-14T10:49:00.017Z,11.60
2022-11-14T10:51:50.637Z,12.53
2022-11-14T10:54:46.883Z,13.40
2022-11-14T10:57:32.945Z,12.03
2022-11-14T11:00:25.261Z,13.03
2022-11-14T11:03:10.860Z,10.67
2022-11-14T11:05:59.464Z,14.17
2022-11-14T11:09:03.772Z,14.87
2022-11-14T11:11:56.286Z,14.37
2022-11-14T11:14:41.778Z,16.27
2022-11-14T11:17:34.105Z,14.97
2022-11-14T11:21:01.316Z,13.90
2022-11-14T11:23:52.683Z,13.93
2022-11-14T11:26:38.032Z,14.40
2022-11-14T11:29:23.601Z,15.77
2022-11-14T11:32:10.219Z,13.97
2022-11-14T11:34:57.683Z,14.30
2022-11-14T11:37:46.762Z,18.77
2022-11-14T11:40:32.203Z,15.23
2022-11-14T11:43:41.855Z,17.83
2022-11-14T11:46:49.105Z,19.77
2022-11-14T11:49:53.277Z,16.80
2022-11-14T11:52:48.636Z,16.07
2022-11-14T11:55:38.268Z,18.90
2022-11-14T11:58:31.840Z,17.27
2022-11-14T12:01:17.595Z,18.20
2022-11-14T12:04:04.172Z,18.17
2022-11-14T12:07:10.973Z,20.77
2022-11-14T12:10:10.596Z,17.50
2022-11-14T12:13:14.772Z,20.30
2022-11-14T12:16:23.851Z,20.53
2022-11-14T12:19:21.505Z,18.13
2022-11-14T12:22:25.423Z,19.97
2022-11-14T12:25:26.358Z,18.27
2022-11-14T12:28:40.032Z,15.37
2022-11-14T12:31:29.509Z,19.07
2022-11-14T12:34:26.301Z,14.80
2022-11-14T12:37:16.993Z,17.57
2022-11-14T12:40:06.542Z,17.83
2022-11-14T12:42:58.326Z,21.17
2022-11-14T12:45:55.986Z,18.87
2022-11-14T12:48:48.077Z,20.37
2022-11-14T12:51:33.880Z,21.33
2022-11-14T13:01:31.063Z,21.00
2022-11-14T13:04:39.371Z,20.47
2022-11-14T13:07:40.379Z,27.67
2022-11-14T13:10:31.183Z,21.83
2022-11-14T13:13:35.806Z,20.53
2022-11-14T13:16:45.474Z,20.90
2022-11-14T13:19:49.732Z,22.23
2022-11-14T13:22:45.393Z,21.13
2022-11-14T13:25:31.548Z,20.53
2022-11-14T13:28:38.818Z,20.23
2022-11-14T13:31:27.065Z,20.33
2022-11-14T13:34:40.942Z,20.00
2022-11-14T13:37:37.781Z,22.40
2022-11-14T13:40:38.253Z,27.77
2022-11-14T13:43:57.542Z,22.60
2022-11-14T13:47:05.358Z,19.60
2022-11-14T13:50:04.847Z,20.80
2022-11-14T13:52:50.647Z,18.97
2022-11-14T13:55:45.395Z,25.27
2022-11-14T13:58:46.275Z,19.70
2022-11-14T14:02:12.942Z,22.10
2022-11-14T14:05:14.448Z,20.23
2022-11-14T14:08:11.645Z,20.60
2022-11-14T14:11:16.148Z,25.10
2022-11-14T14:14:32.352Z,22.00
2022-11-14T14:17:33.614Z,22.20
2022-11-14T14:20:37.965Z,24.20
2022-11-14T14:23:42.245Z,22.13
2022-11-14T14:26:55.827Z,23.47
2022-11-14T14:30:03.724Z,22.50
2022-11-14T14:33:11.515Z,23.73
2022-11-14T14:35:56.757Z,22.47
2022-11-14T14:38:42.141Z,21.83
2022-11-14T14:41:31.531Z,25.60
2022-11-14T14:44:32.087Z,24.17
2022-11-14T14:47:28.578Z,23.77
2022-11-14T14:50:23.298Z,26.43
2022-11-14T14:53:26.603Z,24.43
2022-11-14T14:56:21.155Z,21.90
2022-11-14T14:59:21.120Z,23.83
2022-11-14T15:02:14.220Z,25.73
2022-11-14T15:05:00.388Z,23.50
2022-11-14T15:07:59.287Z,25.27
2022-11-14T15:10:45.835Z,30.50
2022-11-14T15:13:32.469Z,30.73
2022-11-14T15:16:18.751Z,25.57
2022-11-14T15:19:07.698Z,27.67
2022-11-14T15:22:19.003Z,26.10
2022-11-14T15:25:22.727Z,30.27
2022-11-14T15:28:22.036Z,25.30
2022-11-14T15:31:12.981Z,25.77
2022-11-14T15:34:24.343Z,27.80
2022-11-14T15:37:40.550Z,25.57
2022-11-14T15:40:26.499Z,25.50
2022-11-14T15:43:42.902Z,22.43
2022-11-14T15:46:37.238Z,25.47
2022-11-14T15:49:24.707Z,20.57
2022-11-14T15:52:40.931Z,23.57
2022-11-14T15:55:26.811Z,22.07
2022-11-14T15:58:27.884Z,22.63
2022-11-14T16:01:18.370Z,23.47
2022-11-14T16:04:04.168Z,25.20
2022-11-14T16:06:49.668Z,20.60
2022-11-14T16:09:35.134Z,26.27
2022-11-14T16:12:20.799Z,25.53
2022-11-14T16:15:07.067Z,22.17
2022-11-14T16:17:52.953Z,24.37
2022-11-14T16:20:39.838Z,22.03
2022-11-14T16:23:25.412Z,22.47
2022-11-14T16:26:10.812Z,23.33
2022-11-14T16:32:16.599Z,21.43
2022-11-14T16:35:02.574Z,24.07
2022-11-14T16:37:48.758Z,23.20
2022-11-14T16:40:35.751Z,23.03
2022-11-14T16:43:21.757Z,23.47
2022-11-14T16:46:10.290Z,20.00
2022-11-14T16:48:58.574Z,22.30
2022-11-14T16:51:49.580Z,20.87
2022-11-14T16:54:35.751Z,23.00
2022-11-14T16:57:21.581Z,18.93
2022-11-14T17:00:09.476Z,23.97
2022-11-14T17:02:56.656Z,21.10
2022-11-14T17:05:47.310Z,22.07
2022-11-14T17:08:32.981Z,19.43
2022-11-14T17:11:18.617Z,20.10
2022-11-14T17:14:07.855Z,20.83
2022-11-14T17:17:05.382Z,21.77
2022-11-14T17:19:52.166Z,21.03
2022-11-14T17:22:37.694Z,17.73
2022-11-14T17:25:23.517Z,16.27
2022-11-14T17:31:08.280Z,18.50
2022-11-14T17:33:58.113Z,20.50
2022-11-14T17:42:43.205Z,19.13
2022-11-14T17:45:28.762Z,15.80
2022-11-14T17:48:14.079Z,16.83
2022-11-14T17:51:11.462Z,19.63
2022-11-14T17:54:00.012Z,19.17
2022-11-14T18:00:05.476Z,18.70
2022-11-14T18:02:51.353Z,15.53
2022-11-14T18:05:36.763Z,14.33
2022-11-14T18:08:22.080Z,17.57
2022-11-14T18:11:11.514Z,15.80
2022-11-14T18:14:08.519Z,15.93
2022-11-14T18:17:12.299Z,17.13
2022-11-14T18:20:07.893Z,17.93
2022-11-14T18:22:53.976Z,17.47
2022-11-14T18:25:41.954Z,28.83
2022-11-14T18:28:27.383Z,17.33
2022-11-14T18:31:13.447Z,21.53
2022-11-14T18:33:58.626Z,16.63
2022-11-14T18:36:46.929Z,20.33
2022-11-14T18:39:32.618Z,18.23
2022-11-14T18:42:18.357Z,21.13
2022-11-14T18:45:04.070Z,20.10
2022-11-14T18:47:49.205Z,18.30
2022-11-14T18:50:34.792Z,20.53
2022-11-14T18:53:21.444Z,19.07
2022-11-14T18:56:10.437Z,21.73
2022-11-14T18:58:56.986Z,21.53
2022-11-14T19:01:42.384Z,20.90
2022-11-14T19:04:28.150Z,20.23
2022-11-14T19:07:16.434Z,22.90
2022-11-14T19:10:02.426Z,24.47
2022-11-14T19:12:48.675Z,23.50
2022-11-14T19:15:34.672Z,22.43
2022-11-14T19:18:20.451Z,23.70
2022-11-14T19:21:06.247Z,26.87
2022-11-14T19:23:51.504Z,27.23
2022-11-14T19:26:37.040Z,20.73
2022-11-14T19:29:22.781Z,24.47
2022-11-14T19:32:09.345Z,24.07
2022-11-14T19:35:23.760Z,19.43
2022-11-14T19:38:38.235Z,23.93
2022-11-14T19:41:27.913Z,22.50
2022-11-14T19:44:13.251Z,21.47
2022-11-14T19:46:58.833Z,22.80
2022-11-14T19:49:44.415Z,22.27
2022-11-14T19:52:30.283Z,23.67
2022-11-14T19:55:17.554Z,22.57
2022-11-14T19:58:03.251Z,22.27
2022-11-14T20:01:07.603Z,23.70
2022-11-14T20:04:07.958Z,22.67
2022-11-14T20:06:57.998Z,24.60
2022-11-14T20:09:43.606Z,24.20
2022-11-14T20:12:30.384Z,26.33
2022-11-14T20:15:21.577Z,26.10
2022-11-14T20:18:07.048Z,21.93
2022-11-14T20:20:52.961Z,26.37
2022-11-14T20:23:38.208Z,24.57
2022-11-14T20:26:24.430Z,24.67
2022-11-14T20:29:30.801Z,25.07
2022-11-14T20:32:16.544Z,23.57
2022-11-14T20:35:02.623Z,24.33
2022-11-14T20:37:48.591Z,27.07
2022-11-14T20:40:34.260Z,24.23
2022-11-14T20:43:19.961Z,23.07
2022-11-14T20:46:12.382Z,27.70
2022-11-14T20:48:57.990Z,23.97
2022-11-14T20:51:43.836Z,26.10
2022-11-14T20:54:29.620Z,24.13
2022-11-14T20:57:14.884Z,23.40
2022-11-14T21:00:00.974Z,23.57
2022-11-14T21:02:46.625Z,25.23
2022-11-14T21:05:31.852Z,23.73
2022-11-14T21:08:17.446Z,25.10
2022-11-14T21:11:08.974Z,27.03
2022-11-14T21:13:57.006Z,27.10
2022-11-14T21:16:42.154Z,25.97
2022-11-14T21:19:29.326Z,24.47
2022-11-14T21:22:15.194Z,28.37
2022-11-14T21:25:01.893Z,25.73
2022-11-14T21:27:47.467Z,23.90
2022-11-14T21:30:45.674Z,24.03
2022-11-14T21:33:33.209Z,28.07
2022-11-14T21:36:43.683Z,25.63
2022-11-14T21:39:26.038Z,28.43
2022-11-14T21:42:15.629Z,26.50
2022-11-14T21:45:03.920Z,34.27
2022-11-14T21:47:49.482Z,29.60
2022-11-14T21:50:34.919Z,28.17
2022-11-14T21:53:20.351Z,27.90
2022-11-14T21:56:17.637Z,27.37
2022-11-14T21:59:15.042Z,31.13
2022-11-14T22:02:19.173Z,33.40
2022-11-14T22:05:04.683Z,31.83
2022-11-14T22:07:50.705Z,27.83
2022-11-14T22:10:36.100Z,28.00
2022-11-14T22:13:21.372Z,30.77
2022-11-14T22:16:11.361Z,25.90
2022-11-14T22:19:02.038Z,27.77
2022-11-14T22:21:50.663Z,24.70
2022-11-14T22:24:36.234Z,27.17
2022-11-14T22:27:21.726Z,30.50
2022-11-14T22:30:07.656Z,27.03
2022-11-14T22:33:01.804Z,29.60
2022-11-14T22:35:47.314Z,28.57
2022-11-14T22:38:33.708Z,29.83
2022-11-14T22:41:21.220Z,26.70
2022-11-14T22:44:06.648Z,27.87
2022-11-14T22:46:52.141Z,25.23
2022-11-14T22:49:41.092Z,23.80
2022-11-14T22:52:26.684Z,23.27
2022-11-14T22:55:17.823Z,23.97
2022-11-14T22:58:04.224Z,24.90
2022-11-14T23:00:50.350Z,23.77
2022-11-14T23:03:36.340Z,26.30
2022-11-14T23:06:23.035Z,23.10
2022-11-14T23:09:08.626Z,23.90
2022-11-14T23:11:54.040Z,23.10
2022-11-14T23:14:39.319Z,24.40
2022-11-14T23:17:27.223Z,24.67
2022-11-14T23:20:16.229Z,18.83
2022-11-14T23:23:02.132Z,24.47
2022-11-14T23:25:48.029Z,22.03
2022-11-14T23:28:33.514Z,23.53
2022-11-14T23:31:19.475Z,20.77
2022-11-14T23:34:05.037Z,18.77
2022-11-14T23:36:50.352Z,22.00
2022-11-14T23:39:36.014Z,20.43
2022-11-14T23:42:21.298Z,18.47
2022-11-14T23:45:07.396Z,20.53
2022-11-14T23:47:53.088Z,20.67
2022-11-14T23:50:38.345Z,14.63
2022-11-14T23:53:24.280Z,18.83
2022-11-14T23:56:13.245Z,21.03
2022-11-14T23:58:58.844Z,14.97
